createdAt,value
2024-01-12T00:00:06.087Z,1.19
2024-01-12T00:02:39.429Z,1.18
2024-01-12T00:05:08.466Z,1.18
2024-01-12T00:07:35.598Z,1.16
2024-01-12T00:10:03.053Z,1.24
2024-01-12T00:12:30.093Z,1.21
2024-01-12T00:14:57.841Z,1.20
2024-01-12T00:17:25.377Z,1.26
2024-01-12T00:19:52.482Z,1.18
2024-01-12T00:22:19.703Z,1.12
2024-01-12T00:24:46.761Z,1.04
2024-01-12T00:27:14.090Z,1.06
2024-01-12T00:29:41.237Z,1.00
2024-01-12T00:32:08.420Z,0.94
2024-01-12T00:34:35.620Z,0.95
2024-01-12T00:37:02.705Z,0.86
2024-01-12T00:39:29.835Z,0.77
2024-01-12T00:41:56.919Z,0.75
2024-01-12T00:44:24.163Z,0.76
2024-01-12T00:46:52.770Z,0.68
2024-01-12T00:49:20.441Z,0.66
2024-01-12T00:51:48.285Z,0.77
2024-01-12T00:54:15.854Z,0.79
2024-01-12T00:56:43.016Z,0.77
2024-01-12T00:59:10.163Z,0.83
2024-01-12T01:01:37.362Z,0.75
2024-01-12T01:04:05.631Z,0.68
2024-01-12T01:06:32.729Z,0.77
2024-01-12T01:09:00.001Z,0.80
2024-01-12T01:11:27.139Z,0.83
2024-01-12T01:13:54.351Z,0.72
2024-01-12T01:16:21.817Z,0.67
2024-01-12T01:18:49.482Z,0.71
2024-01-12T01:21:16.668Z,0.71
2024-01-12T01:23:43.789Z,0.67
2024-01-12T01:26:10.934Z,0.54
2024-01-12T01:28:38.117Z,0.43
2024-01-12T01:31:05.361Z,0.39
2024-01-12T01:33:32.491Z,0.33
2024-01-12T01:35:59.696Z,0.34
2024-01-12T01:38:26.781Z,0.35
2024-01-12T01:40:53.902Z,0.22
2024-01-12T01:43:22.932Z,0.23
2024-01-12T01:45:50.410Z,0.28
2024-01-12T01:48:17.659Z,0.39
2024-01-12T01:50:44.896Z,0.43
2024-01-12T01:53:12.167Z,0.58
2024-01-12T01:55:39.381Z,0.67
2024-01-12T01:58:06.706Z,0.77
2024-01-12T02:00:33.936Z,0.80
2024-01-12T02:03:02.673Z,0.73
2024-01-12T02:05:31.706Z,0.76
2024-01-12T02:07:58.917Z,0.77
2024-01-12T02:10:26.568Z,0.84
2024-01-12T02:12:53.721Z,0.79
2024-01-12T02:15:21.713Z,0.82
2024-01-12T02:17:49.199Z,0.74
2024-01-12T02:20:16.453Z,0.76
2024-01-12T02:22:43.628Z,0.78
2024-01-12T02:25:11.220Z,0.80
2024-01-12T02:27:38.336Z,0.70
2024-01-12T02:30:06.377Z,0.58
2024-01-12T02:32:33.985Z,0.57
2024-01-12T02:35:01.084Z,0.57
2024-01-12T02:37:28.088Z,0.39
2024-01-12T02:39:55.187Z,0.31
2024-01-12T02:42:22.227Z,0.34
2024-01-12T02:44:49.393Z,0.43
2024-01-12T02:47:16.514Z,0.43
2024-01-12T02:49:44.565Z,0.25
2024-01-12T02:52:11.656Z,0.32
2024-01-12T02:54:38.915Z,0.33
2024-01-12T02:57:06.437Z,0.20
2024-01-12T02:59:33.535Z,0.03
2024-01-12T03:02:00.727Z,0.17
2024-01-12T03:04:27.807Z,0.15
2024-01-12T03:06:54.853Z,0.37
2024-01-12T03:09:23.625Z,0.50
2024-01-12T03:11:50.834Z,0.66
2024-01-12T03:14:18.690Z,0.73
2024-01-12T03:16:45.844Z,0.71
2024-01-12T03:19:13.025Z,0.66
2024-01-12T03:21:40.160Z,0.56
2024-01-12T03:24:07.305Z,0.49
2024-01-12T03:26:38.912Z,0.61
2024-01-12T03:29:06.314Z,0.64
2024-01-12T03:31:34.344Z,0.66
2024-01-12T03:34:03.044Z,0.62
2024-01-12T03:36:30.188Z,0.69
2024-01-12T03:38:57.443Z,0.66
2024-01-12T03:41:24.565Z,0.64
2024-01-12T03:43:51.639Z,0.71
2024-01-12T03:46:18.766Z,0.73
2024-01-12T03:48:46.965Z,0.55
2024-01-12T03:51:14.223Z,0.51
2024-01-12T03:53:41.382Z,0.54
2024-01-12T03:56:08.494Z,0.43
2024-01-12T03:58:38.749Z,0.40
2024-01-12T04:01:09.112Z,0.31
2024-01-12T04:03:36.328Z,0.42
2024-01-12T04:06:12.061Z,0.39
2024-01-12T04:08:39.625Z,0.54
2024-01-12T04:11:07.148Z,0.52
2024-01-12T04:13:34.351Z,0.55
2024-01-12T04:16:01.505Z,0.55
2024-01-12T04:18:28.673Z,0.50
2024-01-12T04:20:55.995Z,0.53
2024-01-12T04:23:23.116Z,0.48
2024-01-12T04:25:50.196Z,0.51
2024-01-12T04:28:17.550Z,0.43
2024-01-12T04:30:44.634Z,0.45
2024-01-12T04:33:11.776Z,0.61
2024-01-12T04:35:39.009Z,0.64
2024-01-12T04:38:05.988Z,0.64
2024-01-12T04:40:32.964Z,0.75
2024-01-12T04:43:00.032Z,0.55
2024-01-12T04:45:27.086Z,0.34
2024-01-12T04:47:54.183Z,0.33
2024-01-12T04:50:21.607Z,0.36
2024-01-12T04:52:49.753Z,0.36
2024-01-12T04:55:16.761Z,0.41
2024-01-12T04:57:43.853Z,0.56
2024-01-12T05:00:11.538Z,0.51
2024-01-12T05:02:38.884Z,0.57
2024-01-12T05:05:06.992Z,0.70
2024-01-12T05:07:34.024Z,0.71
2024-01-12T05:10:01.062Z,0.73
2024-01-12T05:12:28.299Z,0.67
2024-01-12T05:14:55.351Z,0.68
2024-01-12T05:17:24.188Z,0.74
2024-01-12T05:19:51.511Z,0.71
2024-01-12T05:22:18.629Z,0.76
2024-01-12T05:24:45.751Z,0.78
2024-01-12T05:27:12.932Z,0.76
2024-01-12T05:29:39.983Z,0.80
2024-01-12T05:32:07.182Z,0.89
2024-01-12T05:34:34.348Z,0.78
2024-01-12T05:37:01.478Z,0.80
2024-01-12T05:39:28.706Z,0.98
2024-01-12T05:41:55.854Z,1.03
2024-01-12T05:44:23.046Z,0.91
2024-01-12T05:46:50.142Z,0.71
2024-01-12T05:49:17.297Z,0.82
2024-01-12T05:51:44.448Z,0.85
2024-01-12T05:54:11.618Z,0.90
2024-01-12T05:56:38.922Z,0.79
2024-01-12T05:59:06.241Z,0.82
2024-01-12T06:01:33.599Z,0.83
2024-01-12T06:04:00.889Z,1.01
2024-01-12T06:06:28.007Z,0.91
2024-01-12T06:08:55.139Z,0.82
2024-01-12T06:11:22.262Z,0.75
2024-01-12T06:13:49.234Z,0.72
2024-01-12T06:16:16.346Z,0.75
2024-01-12T06:18:43.679Z,0.69
2024-01-12T06:21:11.066Z,0.83
2024-01-12T06:23:38.386Z,1.05
2024-01-12T06:26:05.873Z,1.11
2024-01-12T06:28:32.875Z,1.25
2024-01-12T06:31:00.431Z,1.29
2024-01-12T06:33:27.753Z,1.05
2024-01-12T06:35:54.992Z,0.76
2024-01-12T06:38:22.042Z,0.84
2024-01-12T06:40:49.101Z,0.93
2024-01-12T06:43:16.295Z,0.85
2024-01-12T06:45:43.801Z,0.93
2024-01-12T06:48:11.554Z,0.97
2024-01-12T06:50:38.718Z,1.02
2024-01-12T06:53:09.797Z,1.03
2024-01-12T06:55:38.103Z,1.29
2024-01-12T06:58:05.202Z,1.29
2024-01-12T07:00:33.214Z,1.38
2024-01-12T07:03:00.446Z,1.39
2024-01-12T07:05:27.657Z,1.07
2024-01-12T07:07:54.793Z,1.03
2024-01-12T07:10:22.412Z,1.12
2024-01-12T07:12:53.300Z,1.23
2024-01-12T07:15:21.651Z,1.27
2024-01-12T07:17:51.056Z,1.13
2024-01-12T07:20:19.008Z,1.24
2024-01-12T07:22:46.905Z,1.38
2024-01-12T07:25:13.983Z,1.33
2024-01-12T07:27:43.541Z,1.38
2024-01-12T07:30:11.790Z,1.34
2024-01-12T07:32:39.044Z,1.33
2024-01-12T07:35:06.449Z,1.38
2024-01-12T07:37:33.501Z,1.34
2024-01-12T07:40:00.481Z,1.36
2024-01-12T07:42:27.595Z,1.48
2024-01-12T07:44:55.824Z,1.46
2024-01-12T07:47:23.318Z,1.38
2024-01-12T07:49:50.508Z,1.42
2024-01-12T07:52:19.357Z,1.40
2024-01-12T07:54:48.315Z,1.45
2024-01-12T07:57:15.387Z,1.51
2024-01-12T07:59:42.449Z,1.44
2024-01-12T08:02:09.541Z,1.15
2024-01-12T08:04:39.375Z,1.15
2024-01-12T08:07:07.954Z,1.37
2024-01-12T08:09:35.277Z,1.42
2024-01-12T08:12:03.835Z,1.46
2024-01-12T08:14:31.119Z,1.59
2024-01-12T08:16:58.325Z,1.52
2024-01-12T08:19:25.366Z,1.57
2024-01-12T08:21:56.141Z,1.66
2024-01-12T08:24:24.140Z,1.87
2024-01-12T08:26:51.575Z,1.72
2024-01-12T08:29:18.967Z,1.68
2024-01-12T08:31:46.232Z,1.74
2024-01-12T08:34:13.554Z,1.75
2024-01-12T08:36:40.831Z,1.65
2024-01-12T08:39:08.152Z,1.74
2024-01-12T08:41:35.225Z,1.77
2024-01-12T08:44:02.281Z,1.87
2024-01-12T08:46:29.319Z,1.80
2024-01-12T08:48:56.646Z,1.86
2024-01-12T08:51:25.124Z,1.92
2024-01-12T08:53:52.491Z,2.03
2024-01-12T08:56:19.713Z,2.13
2024-01-12T08:58:46.813Z,2.11
2024-01-12T09:01:14.910Z,2.01
2024-01-12T09:03:42.245Z,1.97
2024-01-12T09:06:10.825Z,2.05
2024-01-12T09:08:38.351Z,2.13
2024-01-12T09:11:05.428Z,2.29
2024-01-12T09:13:32.570Z,2.10
2024-01-12T09:15:59.654Z,2.22
2024-01-12T09:18:26.832Z,2.31
2024-01-12T09:20:54.086Z,2.35
2024-01-12T09:23:21.176Z,2.39
2024-01-12T09:25:51.638Z,2.55
2024-01-12T09:28:19.457Z,2.55
2024-01-12T09:30:47.715Z,2.64
2024-01-12T09:33:15.793Z,2.62
2024-01-12T09:35:43.165Z,2.69
2024-01-12T09:38:10.267Z,2.59
2024-01-12T09:40:37.558Z,2.50
2024-01-12T09:43:13.652Z,2.46
2024-01-12T09:45:44.950Z,2.62
2024-01-12T09:48:13.013Z,2.65
2024-01-12T09:50:42.402Z,2.54
2024-01-12T09:53:09.633Z,2.51
2024-01-12T09:55:36.705Z,2.52
2024-01-12T09:58:05.733Z,2.48
2024-01-12T10:00:36.368Z,2.62
2024-01-12T10:03:04.286Z,2.63
2024-01-12T10:05:31.563Z,2.64
2024-01-12T10:07:58.793Z,2.47
2024-01-12T10:10:28.610Z,2.61
2024-01-12T10:12:56.143Z,2.74
2024-01-12T10:15:23.154Z,2.69
2024-01-12T10:17:53.117Z,2.63
2024-01-12T10:20:22.529Z,2.75
2024-01-12T10:22:57.786Z,2.99
2024-01-12T10:25:25.779Z,3.16
2024-01-12T10:27:59.466Z,3.18
2024-01-12T10:30:28.585Z,3.16
2024-01-12T10:32:55.778Z,3.07
2024-01-12T10:35:23.044Z,2.99
2024-01-12T10:37:50.822Z,2.97
2024-01-12T10:40:18.550Z,3.02
2024-01-12T10:42:50.339Z,3.01
2024-01-12T10:45:27.262Z,3.07
2024-01-12T10:48:03.913Z,3.13
2024-01-12T10:50:36.379Z,3.05
2024-01-12T10:53:15.067Z,3.16
2024-01-12T10:55:51.248Z,3.18
2024-01-12T10:58:19.724Z,3.12
2024-01-12T11:00:47.656Z,3.16
2024-01-12T11:03:18.328Z,3.14
2024-01-12T11:05:46.055Z,3.01
2024-01-12T11:08:13.687Z,3.00
2024-01-12T11:10:47.771Z,3.11
2024-01-12T11:13:17.809Z,3.26
2024-01-12T11:15:45.686Z,3.42
2024-01-12T11:18:12.975Z,3.45
2024-01-12T11:20:40.288Z,3.59
2024-01-12T11:23:09.926Z,3.46
2024-01-12T11:25:37.405Z,3.43
2024-01-12T11:28:04.722Z,3.45
2024-01-12T11:30:44.557Z,3.61
2024-01-12T11:33:12.107Z,3.59
2024-01-12T11:35:40.913Z,3.62
2024-01-12T11:38:13.119Z,3.51
2024-01-12T11:40:45.277Z,3.44
2024-01-12T11:43:19.788Z,3.40
2024-01-12T11:45:48.810Z,3.41
2024-01-12T11:48:16.798Z,3.40
2024-01-12T11:50:44.235Z,3.52
2024-01-12T11:53:11.289Z,3.50
2024-01-12T11:55:40.571Z,3.34
2024-01-12T11:58:07.617Z,3.28
2024-01-12T12:00:34.787Z,3.33
2024-01-12T12:03:01.900Z,3.34
2024-01-12T12:05:30.557Z,3.21
2024-01-12T12:07:57.888Z,3.04
2024-01-12T12:10:33.346Z,2.97
2024-01-12T12:15:53.243Z,3.14
2024-01-12T12:18:20.650Z,3.32
2024-01-12T12:20:49.291Z,3.23
2024-01-12T12:31:49.757Z,3.27
2024-01-12T12:34:18.237Z,3.27
2024-01-12T12:36:45.461Z,3.19
2024-01-12T12:39:12.714Z,3.23
2024-01-12T12:41:40.258Z,3.22
2024-01-12T12:44:07.461Z,3.20
2024-01-12T12:46:34.686Z,3.27
2024-01-12T12:49:02.023Z,3.33
2024-01-12T12:54:22.181Z,3.46
2024-01-12T12:56:50.647Z,3.42
2024-01-12T12:59:17.821Z,3.30
2024-01-12T13:01:44.951Z,3.27
2024-01-12T13:04:13.966Z,3.39
2024-01-12T13:06:43.883Z,3.30
2024-01-12T13:09:11.280Z,3.16
2024-01-12T13:11:38.414Z,3.05
2024-01-12T13:14:05.791Z,3.00
2024-01-12T13:16:33.246Z,3.03
2024-01-12T13:19:10.873Z,3.14
2024-01-12T13:21:45.379Z,3.18
2024-01-12T13:24:13.227Z,3.19
2024-01-12T13:26:40.389Z,2.98
2024-01-12T13:29:09.827Z,2.84
2024-01-12T13:31:43.269Z,2.72
2024-01-12T13:34:13.425Z,2.82
2024-01-12T13:36:45.795Z,3.03
2024-01-12T13:39:12.972Z,2.81
2024-01-12T13:41:41.267Z,2.77
2024-01-12T13:44:08.404Z,2.78
2024-01-12T13:46:35.520Z,2.71
2024-01-12T13:49:02.929Z,2.76
2024-01-12T13:51:30.266Z,2.95
2024-01-12T13:53:57.936Z,2.91
2024-01-12T13:56:24.984Z,2.84
2024-01-12T13:58:52.033Z,2.83
2024-01-12T14:01:19.117Z,2.92
2024-01-12T14:03:49.069Z,3.03
2024-01-12T14:06:16.872Z,3.00
2024-01-12T14:08:44.888Z,3.12
2024-01-12T14:11:12.904Z,3.01
2024-01-12T14:13:40.095Z,2.85
2024-01-12T14:16:07.781Z,2.73
2024-01-12T14:18:35.087Z,2.61
2024-01-12T14:21:02.206Z,2.51
2024-01-12T14:23:29.401Z,2.48
2024-01-12T14:25:56.581Z,2.53
2024-01-12T14:28:32.004Z,2.55
2024-01-12T14:31:02.388Z,2.48
2024-01-12T14:33:34.681Z,2.63
2024-01-12T14:36:06.155Z,2.78
2024-01-12T14:38:33.421Z,2.72
2024-01-12T14:41:00.481Z,2.67
2024-01-12T14:43:27.924Z,2.49
2024-01-12T14:45:55.013Z,2.40
2024-01-12T14:48:25.604Z,2.35
2024-01-12T14:50:53.340Z,2.23
2024-01-12T14:53:20.505Z,2.05
2024-01-12T14:55:48.516Z,1.95
2024-01-12T14:58:15.509Z,1.95
2024-01-12T15:00:42.704Z,1.87
2024-01-12T15:03:10.043Z,1.77
2024-01-12T15:05:37.989Z,1.96
2024-01-12T15:08:05.604Z,1.98
2024-01-12T15:10:32.784Z,2.18
2024-01-12T15:12:59.945Z,2.35
2024-01-12T15:15:27.560Z,2.30
2024-01-12T15:17:54.851Z,2.27
2024-01-12T15:20:22.273Z,2.10
2024-01-12T15:22:49.448Z,2.22
2024-01-12T15:25:16.609Z,2.29
2024-01-12T15:27:44.547Z,2.21
2024-01-12T15:30:12.245Z,1.78
2024-01-12T15:32:39.804Z,1.64
2024-01-12T15:35:07.584Z,1.69
2024-01-12T15:37:34.673Z,1.69
2024-01-12T15:40:02.016Z,1.49
2024-01-12T15:42:35.385Z,1.26
2024-01-12T15:45:09.662Z,1.11
2024-01-12T15:47:37.801Z,1.23
2024-01-12T15:50:05.962Z,1.52
2024-01-12T15:52:33.107Z,1.57
2024-01-12T15:55:00.248Z,1.76
2024-01-12T15:57:27.373Z,1.86
2024-01-12T15:59:54.531Z,1.79
2024-01-12T16:02:21.661Z,1.77
2024-01-12T16:07:43.933Z,2.08
2024-01-12T16:10:11.432Z,2.24
2024-01-12T16:12:38.542Z,2.34
2024-01-12T16:15:08.727Z,2.30
2024-01-12T16:17:36.486Z,2.22
2024-01-12T16:20:04.048Z,2.13
2024-01-12T16:22:31.247Z,2.19
2024-01-12T16:24:59.037Z,2.18
2024-01-12T16:27:27.967Z,2.16
2024-01-12T16:29:55.350Z,2.28
2024-01-12T16:32:22.558Z,2.30
2024-01-12T16:34:49.705Z,2.20
2024-01-12T16:37:16.829Z,2.04
2024-01-12T16:39:45.144Z,1.94
2024-01-12T16:42:13.134Z,1.89
2024-01-12T16:44:40.622Z,1.95
2024-01-12T16:47:07.692Z,2.04
2024-01-12T16:49:38.133Z,2.10
2024-01-12T16:52:05.761Z,2.04
2024-01-12T16:54:32.806Z,2.10
2024-01-12T16:57:00.023Z,2.26
2024-01-12T16:59:30.756Z,2.25
2024-01-12T17:01:57.840Z,2.17
2024-01-12T17:04:24.999Z,2.20
2024-01-12T17:06:55.955Z,2.32
2024-01-12T17:09:23.827Z,2.31
2024-01-12T17:11:51.123Z,2.35
2024-01-12T17:14:18.273Z,2.24
2024-01-12T17:16:47.451Z,2.32
2024-01-12T17:19:14.736Z,2.37
2024-01-12T17:21:41.894Z,2.33
2024-01-12T17:24:10.437Z,2.34
2024-01-12T17:26:39.572Z,2.51
2024-01-12T17:29:06.790Z,2.44
2024-01-12T17:31:34.006Z,2.40
2024-01-12T17:34:01.509Z,2.48
2024-01-12T17:36:28.591Z,2.47
2024-01-12T17:38:55.817Z,2.39
2024-01-12T17:41:24.725Z,2.46
2024-01-12T17:43:52.456Z,2.38
2024-01-12T17:46:19.835Z,2.40
2024-01-12T17:48:47.454Z,2.52
2024-01-12T17:51:16.890Z,2.59
2024-01-12T17:53:45.031Z,2.69
2024-01-12T17:56:12.951Z,2.75
2024-01-12T17:58:40.474Z,2.81
2024-01-12T18:01:08.404Z,2.71
2024-01-12T18:03:35.695Z,2.34
2024-01-12T18:06:03.900Z,2.59
2024-01-12T18:08:31.213Z,2.49
2024-01-12T18:10:58.322Z,2.49
2024-01-12T18:13:25.670Z,2.49
2024-01-12T18:15:52.840Z,2.50
2024-01-12T18:18:20.309Z,2.35
2024-01-12T18:20:47.646Z,2.19
2024-01-12T18:23:14.833Z,2.07
2024-01-12T18:25:41.875Z,2.17
2024-01-12T18:28:08.991Z,2.12
2024-01-12T18:30:36.143Z,2.01
2024-01-12T18:33:04.768Z,2.08
2024-01-12T18:35:32.293Z,2.24
2024-01-12T18:37:59.438Z,2.23
2024-01-12T18:40:26.505Z,2.12
2024-01-12T18:42:53.649Z,2.03
2024-01-12T18:45:20.744Z,2.07
2024-01-12T18:47:48.128Z,2.18
2024-01-12T18:50:15.317Z,2.19
2024-01-12T18:52:45.360Z,2.12
2024-01-12T18:55:12.361Z,2.02
2024-01-12T18:57:39.469Z,2.06
2024-01-12T19:00:07.341Z,2.00
2024-01-12T19:02:34.488Z,1.85
2024-01-12T19:05:01.744Z,1.73
2024-01-12T19:07:29.212Z,1.90
2024-01-12T19:09:56.360Z,2.26
2024-01-12T19:12:23.951Z,2.45
2024-01-12T19:14:51.173Z,2.51
2024-01-12T19:17:18.266Z,2.51
2024-01-12T19:19:45.976Z,2.39
2024-01-12T19:22:13.141Z,2.42
2024-01-12T19:24:45.129Z,2.28
2024-01-12T19:27:13.139Z,2.19
2024-01-12T19:29:40.347Z,1.97
2024-01-12T19:32:11.779Z,2.08
2024-01-12T19:34:42.595Z,2.25
2024-01-12T19:37:10.127Z,2.29
2024-01-12T19:39:37.825Z,2.29
2024-01-12T19:42:05.636Z,2.14
2024-01-12T19:44:32.775Z,2.05
2024-01-12T19:46:59.787Z,2.21
2024-01-12T19:49:27.215Z,1.97
2024-01-12T19:51:54.251Z,2.05
2024-01-12T19:54:21.340Z,2.19
2024-01-12T19:56:48.560Z,2.04
2024-01-12T19:59:16.872Z,2.04
2024-01-12T20:01:44.960Z,1.92
2024-01-12T20:04:12.556Z,1.72
2024-01-12T20:06:39.949Z,1.59
2024-01-12T20:09:07.232Z,1.66
2024-01-12T20:11:34.739Z,1.54
2024-01-12T20:14:02.112Z,1.66
2024-01-12T20:16:31.343Z,1.87
2024-01-12T20:18:59.922Z,2.05
2024-01-12T20:21:28.690Z,2.08
2024-01-12T20:23:55.988Z,2.11
2024-01-12T20:26:24.724Z,2.25
2024-01-12T20:28:52.352Z,2.34
2024-01-12T20:31:19.597Z,2.11
2024-01-12T20:33:47.246Z,2.21
2024-01-12T20:36:14.684Z,2.31
2024-01-12T20:38:41.787Z,2.57
2024-01-12T20:41:09.268Z,2.75
2024-01-12T20:43:36.325Z,2.69
2024-01-12T20:46:03.485Z,2.56
2024-01-12T20:48:30.810Z,2.47
2024-01-12T20:50:58.895Z,2.49
2024-01-12T20:53:26.078Z,2.37
2024-01-12T20:55:53.164Z,2.31
2024-01-12T20:58:20.401Z,2.57
2024-01-12T21:00:47.713Z,2.79
2024-01-12T21:03:15.034Z,2.72
2024-01-12T21:05:42.704Z,2.63
2024-01-12T21:08:09.876Z,2.56
2024-01-12T21:10:37.010Z,2.56
2024-01-12T21:13:04.230Z,2.52
2024-01-12T21:15:32.728Z,2.51
2024-01-12T21:18:00.588Z,2.49
2024-01-12T21:20:27.758Z,2.56
2024-01-12T21:22:54.813Z,2.70
2024-01-12T21:25:22.184Z,2.76
2024-01-12T21:27:49.227Z,2.85
2024-01-12T21:30:16.485Z,2.68
2024-01-12T21:32:43.850Z,2.56
2024-01-12T21:35:11.117Z,2.57
2024-01-12T21:37:38.192Z,2.50
2024-01-12T21:40:07.304Z,2.42
2024-01-12T21:42:34.419Z,2.61
2024-01-12T21:45:01.561Z,2.55
2024-01-12T21:47:28.923Z,2.42
2024-01-12T21:49:56.185Z,2.38
2024-01-12T21:52:23.238Z,2.32
2024-01-12T21:54:50.439Z,2.29
2024-01-12T21:57:17.544Z,2.33
2024-01-12T21:59:44.834Z,2.29
2024-01-12T22:02:12.050Z,2.08
2024-01-12T22:04:39.094Z,1.96
2024-01-12T22:07:06.400Z,1.84
2024-01-12T22:09:33.584Z,1.83
2024-01-12T22:12:00.764Z,1.75
2024-01-12T22:14:27.832Z,1.70
2024-01-12T22:16:56.028Z,1.65
2024-01-12T22:19:23.411Z,1.74
2024-01-12T22:21:51.024Z,1.78
2024-01-12T22:24:18.808Z,1.95
2024-01-12T22:26:46.024Z,2.08
2024-01-12T22:29:14.024Z,1.98
2024-01-12T22:31:41.198Z,1.92
2024-01-12T22:34:08.360Z,1.93
2024-01-12T22:36:35.879Z,1.99
2024-01-12T22:39:03.039Z,1.91
2024-01-12T22:41:30.124Z,1.84
2024-01-12T22:43:57.168Z,1.76
2024-01-12T22:46:24.284Z,1.97
2024-01-12T22:48:51.438Z,2.07
2024-01-12T22:51:18.557Z,1.76
2024-01-12T22:53:45.654Z,1.63
2024-01-12T22:56:14.015Z,1.85
2024-01-12T22:58:41.722Z,1.80
2024-01-12T23:01:08.842Z,1.82
2024-01-12T23:03:36.036Z,1.91
2024-01-12T23:06:03.593Z,1.80
2024-01-12T23:08:30.774Z,1.64
2024-01-12T23:10:57.812Z,1.56
2024-01-12T23:13:24.905Z,1.57
2024-01-12T23:15:52.036Z,1.54
2024-01-12T23:18:19.394Z,1.47
2024-01-12T23:20:46.620Z,1.52
2024-01-12T23:23:13.638Z,1.58
2024-01-12T23:25:40.627Z,1.95
2024-01-12T23:28:07.810Z,2.19
2024-01-12T23:30:35.139Z,2.13
2024-01-12T23:33:02.480Z,1.96
2024-01-12T23:35:29.788Z,1.80
2024-01-12T23:37:56.860Z,1.87
2024-01-12T23:40:23.937Z,2.12
2024-01-12T23:42:50.976Z,2.34
2024-01-12T23:45:18.069Z,2.33
2024-01-12T23:47:46.008Z,2.25
2024-01-12T23:50:13.642Z,2.48
2024-01-12T23:52:40.658Z,2.55
2024-01-12T23:55:11.224Z,2.33
2024-01-12T23:57:38.290Z,2.21
